sensor_id;sensor_type;location;lat;lon;timestamp;pressure;altitude;pressure_sealevel;temperature;humidity
34586;BME280;20816;50.950;11.108;2023-01-30T00:01:14;98620.78;;;-1.44;100.00
34586;BME280;20816;50.950;11.108;2023-01-30T00:03:41;98610.53;;;-1.42;100.00
34586;BME280;20816;50.950;11.108;2023-01-30T00:06:09;98607.69;;;-1.53;100.00
34586;BME280;20816;50.950;11.108;2023-01-30T00:08:36;98622.47;;;-1.46;100.00
34586;BME280;20816;50.950;11.108;2023-01-30T00:11:08;98614.94;;;-1.38;100.00
34586;BME280;20816;50.950;11.108;2023-01-30T00:13:36;98621.84;;;-1.37;100.00
34586;BME280;20816;50.950;11.108;2023-01-30T00:16:03;98623.94;;;-1.22;100.00
34586;BME280;20816;50.950;11.108;2023-01-30T00:18:30;98593.94;;;-1.17;100.00
34586;BME280;20816;50.950;11.108;2023-01-30T00:20:58;98575.22;;;-1.10;100.00
34586;BME280;20816;50.950;11.108;2023-01-30T00:23:26;98579.34;;;-1.17;100.00
34586;BME280;20816;50.950;11.108;2023-01-30T00:25:53;98570.72;;;-1.19;100.00
34586;BME280;20816;50.950;11.108;2023-01-30T00:28:21;98561.69;;;-1.37;100.00
34586;BME280;20816;50.950;11.108;2023-01-30T00:30:52;98544.22;;;-1.48;100.00
34586;BME280;20816;50.950;11.108;2023-01-30T00:33:21;98552.91;;;-1.44;100.00
34586;BME280;20816;50.950;11.108;2023-01-30T00:35:49;98547.03;;;-1.38;100.00
34586;BME280;20816;50.950;11.108;2023-01-30T00:38:17;98541.09;;;-1.36;100.00
34586;BME280;20816;50.950;11.108;2023-01-30T00:40:44;98546.31;;;-1.33;100.00
34586;BME280;20816;50.950;11.108;2023-01-30T00:43:13;98538.88;;;-1.21;100.00
34586;BME280;20816;50.950;11.108;2023-01-30T00:45:59;98532.75;;;-1.24;100.00
34586;BME280;20816;50.950;11.108;2023-01-30T00:48:46;98543.69;;;-1.34;100.00
34586;BME280;20816;50.950;11.108;2023-01-30T00:51:12;98534.50;;;-1.23;100.00
34586;BME280;20816;50.950;11.108;2023-01-30T00:53:39;98520.66;;;-1.28;100.00
34586;BME280;20816;50.950;11.108;2023-01-30T00:56:06;98504.53;;;-1.20;100.00
34586;BME280;20816;50.950;11.108;2023-01-30T00:58:33;98495.78;;;-1.25;100.00
34586;BME280;20816;50.950;11.108;2023-01-30T01:00:59;98497.34;;;-1.31;100.00
34586;BME280;20816;50.950;11.108;2023-01-30T01:03:26;98472.00;;;-1.13;100.00
34586;BME280;20816;50.950;11.108;2023-01-30T01:05:52;98443.69;;;-1.11;100.00
34586;BME280;20816;50.950;11.108;2023-01-30T01:08:19;98446.22;;;-1.13;100.00
34586;BME280;20816;50.950;11.108;2023-01-30T01:10:48;98442.94;;;-1.06;100.00
34586;BME280;20816;50.950;11.108;2023-01-30T01:13:14;98443.25;;;-0.91;100.00
34586;BME280;20816;50.950;11.108;2023-01-30T01:15:41;98431.31;;;-0.86;100.00
34586;BME280;20816;50.950;11.108;2023-01-30T01:18:07;98443.31;;;-0.88;100.00
34586;BME280;20816;50.950;11.108;2023-01-30T01:20:34;98448.53;;;-0.85;100.00
34586;BME280;20816;50.950;11.108;2023-01-30T01:23:01;98429.38;;;-0.53;100.00
34586;BME280;20816;50.950;11.108;2023-01-30T01:25:27;98437.31;;;-0.43;100.00
34586;BME280;20816;50.950;11.108;2023-01-30T01:27:54;98432.69;;;-0.15;100.00
34586;BME280;20816;50.950;11.108;2023-01-30T01:30:21;98396.56;;;-0.12;100.00
34586;BME280;20816;50.950;11.108;2023-01-30T01:32:48;98404.28;;;-0.14;100.00
34586;BME280;20816;50.950;11.108;2023-01-30T01:35:15;98379.22;;;-0.19;100.00
34586;BME280;20816;50.950;11.108;2023-01-30T01:37:42;98362.97;;;-0.14;100.00
34586;BME280;20816;50.950;11.108;2023-01-30T01:40:16;98396.66;;;-0.06;100.00
34586;BME280;20816;50.950;11.108;2023-01-30T01:43:13;98417.09;;;-0.20;100.00
34586;BME280;20816;50.950;11.108;2023-01-30T01:45:40;98440.44;;;-0.15;100.00
34586;BME280;20816;50.950;11.108;2023-01-30T01:48:12;98442.19;;;-0.13;100.00
34586;BME280;20816;50.950;11.108;2023-01-30T01:53:31;98445.91;;;0.03;100.00
34586;BME280;20816;50.950;11.108;2023-01-30T01:56:01;98433.19;;;0.15;100.00
34586;BME280;20816;50.950;11.108;2023-01-30T01:58:36;98432.47;;;0.24;100.00
34586;BME280;20816;50.950;11.108;2023-01-30T02:01:05;98426.53;;;0.31;100.00
34586;BME280;20816;50.950;11.108;2023-01-30T02:03:36;98422.25;;;0.32;100.00
34586;BME280;20816;50.950;11.108;2023-01-30T02:06:05;98426.66;;;0.39;100.00
34586;BME280;20816;50.950;11.108;2023-01-30T02:08:38;98421.47;;;0.36;100.00
34586;BME280;20816;50.950;11.108;2023-01-30T02:11:07;98425.00;;;0.41;100.00
34586;BME280;20816;50.950;11.108;2023-01-30T02:13:35;98411.34;;;0.51;100.00
34586;BME280;20816;50.950;11.108;2023-01-30T02:16:04;98404.38;;;0.47;100.00
34586;BME280;20816;50.950;11.108;2023-01-30T02:18:33;98390.59;;;0.48;100.00
34586;BME280;20816;50.950;11.108;2023-01-30T02:21:42;98397.50;;;0.47;100.00
34586;BME280;20816;50.950;11.108;2023-01-30T02:24:29;98384.53;;;0.44;100.00
34586;BME280;20816;50.950;11.108;2023-01-30T02:30:01;98368.16;;;0.44;100.00
34586;BME280;20816;50.950;11.108;2023-01-30T02:32:52;98367.19;;;0.36;100.00
34586;BME280;20816;50.950;11.108;2023-01-30T02:35:41;98362.13;;;0.43;100.00
34586;BME280;20816;50.950;11.108;2023-01-30T02:43:32;98329.63;;;0.62;100.00
34586;BME280;20816;50.950;11.108;2023-01-30T02:46:09;98322.72;;;0.63;100.00
34586;BME280;20816;50.950;11.108;2023-01-30T02:48:45;98307.31;;;0.70;100.00
34586;BME280;20816;50.950;11.108;2023-01-30T02:51:18;98305.56;;;0.68;100.00
34586;BME280;20816;50.950;11.108;2023-01-30T02:53:46;98306.53;;;0.74;100.00
34586;BME280;20816;50.950;11.108;2023-01-30T02:56:14;98302.22;;;0.76;100.00
34586;BME280;20816;50.950;11.108;2023-01-30T02:58:45;98301.56;;;0.93;100.00
34586;BME280;20816;50.950;11.108;2023-01-30T03:10:12;98298.31;;;1.12;100.00
34586;BME280;20816;50.950;11.108;2023-01-30T03:12:57;98281.91;;;1.10;100.00
34586;BME280;20816;50.950;11.108;2023-01-30T03:17:52;98285.44;;;1.17;100.00
34586;BME280;20816;50.950;11.108;2023-01-30T03:20:20;98265.50;;;1.08;100.00
34586;BME280;20816;50.950;11.108;2023-01-30T03:22:47;98246.53;;;1.12;100.00
34586;BME280;20816;50.950;11.108;2023-01-30T03:25:18;98250.13;;;1.23;100.00
34586;BME280;20816;50.950;11.108;2023-01-30T03:27:45;98250.06;;;1.20;100.00
34586;BME280;20816;50.950;11.108;2023-01-30T03:30:13;98243.16;;;1.16;100.00
34586;BME280;20816;50.950;11.108;2023-01-30T03:32:40;98240.59;;;1.19;100.00
34586;BME280;20816;50.950;11.108;2023-01-30T03:35:07;98234.53;;;1.17;100.00
34586;BME280;20816;50.950;11.108;2023-01-30T03:37:34;98224.19;;;1.20;100.00
34586;BME280;20816;50.950;11.108;2023-01-30T03:40:01;98209.53;;;1.19;100.00
34586;BME280;20816;50.950;11.108;2023-01-30T03:42:28;98199.19;;;1.21;100.00
34586;BME280;20816;50.950;11.108;2023-01-30T03:44:54;98204.28;;;1.13;100.00
34586;BME280;20816;50.950;11.108;2023-01-30T03:47:21;98194.94;;;1.27;100.00
34586;BME280;20816;50.950;11.108;2023-01-30T03:49:48;98180.25;;;1.28;100.00
34586;BME280;20816;50.950;11.108;2023-01-30T03:52:14;98182.81;;;1.23;100.00
34586;BME280;20816;50.950;11.108;2023-01-30T03:54:41;98163.00;;;1.28;100.00
34586;BME280;20816;50.950;11.108;2023-01-30T03:57:08;98161.31;;;1.30;100.00
34586;BME280;20816;50.950;11.108;2023-01-30T03:59:34;98165.59;;;1.25;100.00
34586;BME280;20816;50.950;11.108;2023-01-30T04:02:01;98181.09;;;1.24;100.00
34586;BME280;20816;50.950;11.108;2023-01-30T04:04:28;98163.88;;;1.27;100.00
34586;BME280;20816;50.950;11.108;2023-01-30T04:06:54;98166.50;;;1.30;100.00
34586;BME280;20816;50.950;11.108;2023-01-30T04:09:21;98171.75;;;1.41;100.00
34586;BME280;20816;50.950;11.108;2023-01-30T04:11:48;98178.66;;;1.39;100.00
34586;BME280;20816;50.950;11.108;2023-01-30T04:14:14;98189.06;;;1.48;100.00
34586;BME280;20816;50.950;11.108;2023-01-30T04:16:41;98182.19;;;1.53;100.00
34586;BME280;20816;50.950;11.108;2023-01-30T04:19:08;98165.84;;;1.62;100.00
34586;BME280;20816;50.950;11.108;2023-01-30T04:21:34;98163.28;;;1.63;100.00
34586;BME280;20816;50.950;11.108;2023-01-30T04:24:01;98137.38;;;1.63;100.00
34586;BME280;20816;50.950;11.108;2023-01-30T04:26:28;98152.88;;;1.59;100.00
34586;BME280;20816;50.950;11.108;2023-01-30T04:28:54;98158.06;;;1.62;100.00
34586;BME280;20816;50.950;11.108;2023-01-30T04:31:21;98160.75;;;1.77;100.00
34586;BME280;20816;50.950;11.108;2023-01-30T04:33:47;98154.66;;;1.69;100.00
34586;BME280;20816;50.950;11.108;2023-01-30T04:36:14;98139.16;;;1.72;100.00
34586;BME280;20816;50.950;11.108;2023-01-30T04:38:41;98129.66;;;1.73;100.00
34586;BME280;20816;50.950;11.108;2023-01-30T04:41:07;98108.84;;;1.62;100.00
34586;BME280;20816;50.950;11.108;2023-01-30T04:43:34;98112.38;;;1.73;100.00
34586;BME280;20816;50.950;11.108;2023-01-30T04:46:01;98091.66;;;1.76;100.00
34586;BME280;20816;50.950;11.108;2023-01-30T04:48:27;98085.63;;;1.74;100.00
34586;BME280;20816;50.950;11.108;2023-01-30T04:50:55;98103.75;;;1.77;100.00
34586;BME280;20816;50.950;11.108;2023-01-30T04:53:22;98089.94;;;1.78;100.00
34586;BME280;20816;50.950;11.108;2023-01-30T04:55:49;98092.53;;;1.77;100.00
34586;BME280;20816;50.950;11.108;2023-01-30T04:58:16;98084.78;;;1.84;100.00
34586;BME280;20816;50.950;11.108;2023-01-30T05:00:45;98077.03;;;1.80;100.00
34586;BME280;20816;50.950;11.108;2023-01-30T05:03:13;98068.38;;;1.79;100.00
34586;BME280;20816;50.950;11.108;2023-01-30T05:05:40;98068.34;;;1.73;100.00
34586;BME280;20816;50.950;11.108;2023-01-30T05:08:07;98056.25;;;1.78;100.00
34586;BME280;20816;50.950;11.108;2023-01-30T05:10:34;98054.56;;;1.82;100.00
34586;BME280;20816;50.950;11.108;2023-01-30T05:13:04;98066.66;;;1.83;100.00
34586;BME280;20816;50.950;11.108;2023-01-30T05:15:31;98064.06;;;1.84;100.00
34586;BME280;20816;50.950;11.108;2023-01-30T05:17:59;98048.53;;;1.84;100.00
34586;BME280;20816;50.950;11.108;2023-01-30T05:20:25;98047.66;;;1.82;100.00
34586;BME280;20816;50.950;11.108;2023-01-30T05:22:52;98046.78;;;1.80;100.00
34586;BME280;20816;50.950;11.108;2023-01-30T05:25:19;98043.34;;;1.84;100.00
34586;BME280;20816;50.950;11.108;2023-01-30T05:27:46;98062.31;;;1.79;100.00
34586;BME280;20816;50.950;11.108;2023-01-30T05:30:12;98083.03;;;1.76;100.00
34586;BME280;20816;50.950;11.108;2023-01-30T05:32:39;98076.09;;;1.70;100.00
34586;BME280;20816;50.950;11.108;2023-01-30T05:35:06;98067.50;;;1.71;100.00
34586;BME280;20816;50.950;11.108;2023-01-30T05:37:33;98055.41;;;1.73;100.00
34586;BME280;20816;50.950;11.108;2023-01-30T05:39:59;98055.38;;;1.70;100.00
34586;BME280;20816;50.950;11.108;2023-01-30T05:42:26;98048.50;;;1.75;100.00
34586;BME280;20816;50.950;11.108;2023-01-30T05:44:53;98050.22;;;1.76;100.00
34586;BME280;20816;50.950;11.108;2023-01-30T05:47:19;98041.59;;;1.76;100.00
34586;BME280;20816;50.950;11.108;2023-01-30T05:49:46;98047.66;;;1.79;100.00
34586;BME280;20816;50.950;11.108;2023-01-30T05:52:13;98035.56;;;1.81;100.00
34586;BME280;20816;50.950;11.108;2023-01-30T05:54:39;98030.38;;;1.81;100.00
34586;BME280;20816;50.950;11.108;2023-01-30T05:57:06;98031.25;;;1.83;100.00
34586;BME280;20816;50.950;11.108;2023-01-30T05:59:33;98021.75;;;1.79;100.00
34586;BME280;20816;50.950;11.108;2023-01-30T06:01:59;98014.84;;;1.86;100.00
34586;BME280;20816;50.950;11.108;2023-01-30T06:04:26;98006.19;;;1.87;100.00
34586;BME280;20816;50.950;11.108;2023-01-30T06:06:53;98007.94;;;1.85;100.00
34586;BME280;20816;50.950;11.108;2023-01-30T06:09:19;98003.63;;;1.91;100.00
34586;BME280;20816;50.950;11.108;2023-01-30T06:11:46;98011.44;;;1.96;100.00
34586;BME280;20816;50.950;11.108;2023-01-30T06:14:13;97997.59;;;1.88;100.00
34586;BME280;20816;50.950;11.108;2023-01-30T06:16:40;98004.50;;;1.90;100.00
34586;BME280;20816;50.950;11.108;2023-01-30T06:19:07;98001.03;;;1.94;100.00
34586;BME280;20816;50.950;11.108;2023-01-30T06:21:34;98006.25;;;1.98;100.00
34586;BME280;20816;50.950;11.108;2023-01-30T06:24:01;98020.94;;;2.02;100.00
34586;BME280;20816;50.950;11.108;2023-01-30T06:26:27;98005.38;;;2.02;100.00
34586;BME280;20816;50.950;11.108;2023-01-30T06:28:54;98012.28;;;2.03;100.00
34586;BME280;20816;50.950;11.108;2023-01-30T06:31:21;98012.31;;;2.00;100.00
34586;BME280;20816;50.950;11.108;2023-01-30T06:33:48;98020.09;;;2.06;100.00
34586;BME280;20816;50.950;11.108;2023-01-30T06:36:14;97997.63;;;2.09;100.00
34586;BME280;20816;50.950;11.108;2023-01-30T06:38:41;97994.19;;;2.07;100.00
34586;BME280;20816;50.950;11.108;2023-01-30T06:41:08;97981.22;;;2.06;100.00
34586;BME280;20816;50.950;11.108;2023-01-30T06:43:34;98001.97;;;2.04;100.00
34586;BME280;20816;50.950;11.108;2023-01-30T06:46:01;98016.63;;;2.08;100.00
34586;BME280;20816;50.950;11.108;2023-01-30T06:48:28;98012.31;;;2.06;100.00
34586;BME280;20816;50.950;11.108;2023-01-30T06:50:55;98017.53;;;2.12;100.00
34586;BME280;20816;50.950;11.108;2023-01-30T06:53:21;98018.38;;;2.15;100.00
34586;BME280;20816;50.950;11.108;2023-01-30T06:55:50;98008.88;;;2.13;100.00
34586;BME280;20816;50.950;11.108;2023-01-30T06:58:17;98033.94;;;2.14;100.00
34586;BME280;20816;50.950;11.108;2023-01-30T07:00:44;98018.38;;;2.18;100.00
34586;BME280;20816;50.950;11.108;2023-01-30T07:03:12;98017.53;;;2.18;100.00
34586;BME280;20816;50.950;11.108;2023-01-30T07:05:41;98006.28;;;2.07;100.00
34586;BME280;20816;50.950;11.108;2023-01-30T07:08:08;98006.28;;;2.07;100.00
34586;BME280;20816;50.950;11.108;2023-01-30T07:10:35;98014.91;;;2.09;100.00
34586;BME280;20816;50.950;11.108;2023-01-30T07:13:03;98019.22;;;2.07;100.00
34586;BME280;20816;50.950;11.108;2023-01-30T07:15:30;98008.00;;;2.09;100.00
34586;BME280;20816;50.950;11.108;2023-01-30T07:17:57;98024.41;;;2.08;100.00
34586;BME280;20816;50.950;11.108;2023-01-30T07:20:24;98017.50;;;2.09;100.00
34586;BME280;20816;50.950;11.108;2023-01-30T07:22:52;98022.69;;;2.09;100.00
34586;BME280;20816;50.950;11.108;2023-01-30T07:25:21;98023.56;;;2.08;100.00
34586;BME280;20816;50.950;11.108;2023-01-30T07:27:53;98019.22;;;2.10;100.00
34586;BME280;20816;50.950;11.108;2023-01-30T07:30:20;98019.22;;;2.07;100.00
34586;BME280;20816;50.950;11.108;2023-01-30T07:32:56;98000.22;;;2.08;100.00
34586;BME280;20816;50.950;11.108;2023-01-30T07:35:24;98005.41;;;2.08;100.00
34586;BME280;20816;50.950;11.108;2023-01-30T07:37:52;98004.53;;;2.10;100.00
34586;BME280;20816;50.950;11.108;2023-01-30T07:40:19;97993.31;;;2.07;100.00
34586;BME280;20816;50.950;11.108;2023-01-30T07:42:56;97977.78;;;2.13;100.00
34586;BME280;20816;50.950;11.108;2023-01-30T07:45:24;97982.09;;;2.15;100.00
34586;BME280;20816;50.950;11.108;2023-01-30T07:47:51;97997.66;;;2.14;100.00
34586;BME280;20816;50.950;11.108;2023-01-30T07:50:18;97990.72;;;2.17;100.00
34586;BME280;20816;50.950;11.108;2023-01-30T07:52:46;97996.78;;;2.15;100.00
34586;BME280;20816;50.950;11.108;2023-01-30T07:55:12;98002.84;;;2.26;100.00
34586;BME280;20816;50.950;11.108;2023-01-30T07:57:39;97992.47;;;2.26;100.00
34586;BME280;20816;50.950;11.108;2023-01-30T08:00:07;97995.09;;;2.32;100.00
34586;BME280;20816;50.950;11.108;2023-01-30T08:02:36;97984.69;;;2.35;100.00
34586;BME280;20816;50.950;11.108;2023-01-30T08:05:03;98004.59;;;2.38;100.00
34586;BME280;20816;50.950;11.108;2023-01-30T08:07:31;97980.38;;;2.42;100.00
34586;BME280;20816;50.950;11.108;2023-01-30T08:09:58;97989.91;;;2.38;100.00
34586;BME280;20816;50.950;11.108;2023-01-30T08:12:25;97982.97;;;2.43;100.00
34586;BME280;20816;50.950;11.108;2023-01-30T08:14:52;97984.72;;;2.44;100.00
34586;BME280;20816;50.950;11.108;2023-01-30T08:17:18;97998.53;;;2.43;100.00
34586;BME280;20816;50.950;11.108;2023-01-30T08:19:45;97991.63;;;2.51;100.00
34586;BME280;20816;50.950;11.108;2023-01-30T08:22:12;97999.44;;;2.45;100.00
34586;BME280;20816;50.950;11.108;2023-01-30T08:24:39;97996.84;;;2.45;100.00
34586;BME280;20816;50.950;11.108;2023-01-30T08:27:05;97999.41;;;2.56;100.00
34586;BME280;20816;50.950;11.108;2023-01-30T08:29:32;97991.63;;;2.56;100.00
34586;BME280;20816;50.950;11.108;2023-01-30T08:31:59;97995.97;;;2.54;100.00
34586;BME280;20816;50.950;11.108;2023-01-30T08:34:26;97999.41;;;2.56;100.00
34586;BME280;20816;50.950;11.108;2023-01-30T08:36:53;98012.38;;;2.67;100.00
34586;BME280;20816;50.950;11.108;2023-01-30T08:39:19;98019.28;;;2.68;100.00
34586;BME280;20816;50.950;11.108;2023-01-30T08:41:46;98026.22;;;2.66;100.00
34586;BME280;20816;50.950;11.108;2023-01-30T08:44:13;98026.25;;;2.69;100.00
34586;BME280;20816;50.950;11.108;2023-01-30T08:46:40;98032.28;;;2.71;100.00
34586;BME280;20816;50.950;11.108;2023-01-30T08:49:07;98019.28;;;2.68;100.00
34586;BME280;20816;50.950;11.108;2023-01-30T08:51:33;98010.69;;;2.69;100.00
34586;BME280;20816;50.950;11.108;2023-01-30T08:54:00;97998.56;;;2.78;100.00
34586;BME280;20816;50.950;11.108;2023-01-30T08:56:27;98015.00;;;2.85;100.00
34586;BME280;20816;50.950;11.108;2023-01-30T08:58:53;98011.53;;;2.80;100.00
34586;BME280;20816;50.950;11.108;2023-01-30T09:01:20;98023.63;;;2.93;100.00
34586;BME280;20816;50.950;11.108;2023-01-30T09:03:47;98019.28;;;2.92;100.00
34586;BME280;20816;50.950;11.108;2023-01-30T09:06:14;98014.09;;;2.92;100.00
34586;BME280;20816;50.950;11.108;2023-01-30T09:08:41;98014.09;;;3.04;100.00
34586;BME280;20816;50.950;11.108;2023-01-30T09:11:09;98022.72;;;3.00;100.00
34586;BME280;20816;50.950;11.108;2023-01-30T09:13:36;98006.28;;;3.18;100.00
34586;BME280;20816;50.950;11.108;2023-01-30T09:16:09;98002.81;;;3.27;100.00
34586;BME280;20816;50.950;11.108;2023-01-30T09:18:38;97984.66;;;3.08;100.00
34586;BME280;20816;50.950;11.108;2023-01-30T09:21:08;97992.44;;;3.07;100.00
34586;BME280;20816;50.950;11.108;2023-01-30T09:23:35;98008.91;;;3.11;100.00
34586;BME280;20816;50.950;11.108;2023-01-30T09:26:03;97994.19;;;3.03;100.00
34586;BME280;20816;50.950;11.108;2023-01-30T09:28:31;97989.88;;;2.96;100.00
34586;BME280;20816;50.950;11.108;2023-01-30T09:30:59;97963.94;;;2.95;100.00
34586;BME280;20816;50.950;11.108;2023-01-30T09:33:27;97968.25;;;2.91;100.00
34586;BME280;20816;50.950;11.108;2023-01-30T09:35:54;97986.41;;;3.00;100.00
34586;BME280;20816;50.950;11.108;2023-01-30T09:38:21;97971.66;;;3.08;100.00
34586;BME280;20816;50.950;11.108;2023-01-30T09:40:58;97976.88;;;3.10;100.00
34586;BME280;20816;50.950;11.108;2023-01-30T09:44:13;97980.34;;;3.07;100.00
34586;BME280;20816;50.950;11.108;2023-01-30T09:47:13;97986.41;;;3.11;100.00
34586;BME280;20816;50.950;11.108;2023-01-30T09:52:52;97988.13;;;3.07;100.00
34586;BME280;20816;50.950;11.108;2023-01-30T09:55:27;98009.78;;;2.94;100.00
34586;BME280;20816;50.950;11.108;2023-01-30T09:57:56;98005.44;;;3.02;100.00
34586;BME280;20816;50.950;11.108;2023-01-30T10:02:58;98014.09;;;2.92;100.00
34586;BME280;20816;50.950;11.108;2023-01-30T10:11:44;98042.66;;;2.83;100.00
34586;BME280;20816;50.950;11.108;2023-01-30T10:19:45;98057.38;;;2.87;100.00
34586;BME280;20816;50.950;11.108;2023-01-30T10:25:05;98043.53;;;2.88;100.00
34586;BME280;20816;50.950;11.108;2023-01-30T10:27:43;98050.44;;;2.80;100.00
34586;BME280;20816;50.950;11.108;2023-01-30T10:30:14;98053.88;;;2.76;100.00
34586;BME280;20816;50.950;11.108;2023-01-30T10:32:56;98046.09;;;2.68;100.00
34586;BME280;20816;50.950;11.108;2023-01-30T10:35:30;98071.19;;;2.65;100.00
34586;BME280;20816;50.950;11.108;2023-01-30T10:40:41;98066.00;;;2.68;100.00
34586;BME280;20816;50.950;11.108;2023-01-30T10:43:23;98070.34;;;2.69;100.00
34586;BME280;20816;50.950;11.108;2023-01-30T10:51:43;98061.69;;;2.79;100.00
34586;BME280;20816;50.950;11.108;2023-01-30T10:54:18;98052.16;;;2.84;100.00
34586;BME280;20816;50.950;11.108;2023-01-30T10:56:51;98052.16;;;2.83;100.00
34586;BME280;20816;50.950;11.108;2023-01-30T11:01:58;98044.38;;;2.76;100.00
34586;BME280;20816;50.950;11.108;2023-01-30T11:04:39;98048.72;;;2.79;100.00
34586;BME280;20816;50.950;11.108;2023-01-30T11:07:10;98050.44;;;2.65;100.00
34586;BME280;20816;50.950;11.108;2023-01-30T11:09:43;98034.88;;;2.74;100.00
34586;BME280;20816;50.950;11.108;2023-01-30T11:12:11;98030.53;;;2.76;100.00
34586;BME280;20816;50.950;11.108;2023-01-30T11:14:51;98028.81;;;2.76;100.00
34586;BME280;20816;50.950;11.108;2023-01-30T11:17:20;98039.22;;;2.69;100.00
34586;BME280;20816;50.950;11.108;2023-01-30T11:19:55;98034.88;;;2.77;100.00
34586;BME280;20816;50.950;11.108;2023-01-30T11:22:24;98031.44;;;2.78;100.00
34586;BME280;20816;50.950;11.108;2023-01-30T11:25:10;98022.78;;;2.70;100.00
34586;BME280;20816;50.950;11.108;2023-01-30T11:27:41;98022.75;;;2.67;100.00
34586;BME280;20816;50.950;11.108;2023-01-30T11:32:42;97997.66;;;2.89;100.00
34586;BME280;20816;50.950;11.108;2023-01-30T11:37:38;97992.47;;;2.95;100.00
34586;BME280;20816;50.950;11.108;2023-01-30T11:42:49;97989.91;;;2.93;100.00
34586;BME280;20816;50.950;11.108;2023-01-30T11:45:17;97986.44;;;2.82;100.00
34586;BME280;20816;50.950;11.108;2023-01-30T11:47:56;97995.09;;;2.72;100.00
34586;BME280;20816;50.950;11.108;2023-01-30T11:50:33;97983.84;;;2.68;100.00
34586;BME280;20816;50.950;11.108;2023-01-30T11:53:37;97968.28;;;2.71;100.00
34586;BME280;20816;50.950;11.108;2023-01-30T11:56:12;97970.88;;;2.68;100.00
34586;BME280;20816;50.950;11.108;2023-01-30T11:58:41;97956.13;;;2.90;100.00
34586;BME280;20816;50.950;11.108;2023-01-30T12:01:12;97961.28;;;3.07;100.00
34586;BME280;20816;50.950;11.108;2023-01-30T12:03:49;97958.66;;;3.27;100.00
34586;BME280;20816;50.950;11.108;2023-01-30T12:06:23;97961.16;;;3.50;100.00
34586;BME280;20816;50.950;11.108;2023-01-30T12:08:54;97960.28;;;3.48;100.00
34586;BME280;20816;50.950;11.108;2023-01-30T12:11:40;97963.75;;;3.54;100.00
34586;BME280;20816;50.950;11.108;2023-01-30T12:14:37;97944.72;;;3.52;100.00
34586;BME280;20816;50.950;11.108;2023-01-30T12:17:15;97945.66;;;3.34;100.00
34586;BME280;20816;50.950;11.108;2023-01-30T12:25:22;97960.41;;;3.22;100.00
34586;BME280;20816;50.950;11.108;2023-01-30T12:30:48;97944.81;;;3.17;100.00
34586;BME280;20816;50.950;11.108;2023-01-30T12:33:17;97946.56;;;3.14;100.00
34586;BME280;20816;50.950;11.108;2023-01-30T12:47:13;97963.84;;;3.24;100.00
34586;BME280;20816;50.950;11.108;2023-01-30T12:58:34;97943.94;;;3.29;100.00
34586;BME280;20816;50.950;11.108;2023-01-30T13:01:23;97941.38;;;3.20;100.00
34586;BME280;20816;50.950;11.108;2023-01-30T13:07:45;97928.34;;;3.24;100.00
34586;BME280;20816;50.950;11.108;2023-01-30T13:13:03;97942.22;;;3.20;100.00
34586;BME280;20816;50.950;11.108;2023-01-30T13:18:44;97947.44;;;3.19;100.00
34586;BME280;20816;50.950;11.108;2023-01-30T13:21:15;97933.59;;;3.20;100.00
34586;BME280;20816;50.950;11.108;2023-01-30T13:24:00;97939.59;;;3.31;100.00
34586;BME280;20816;50.950;11.108;2023-01-30T13:26:33;97931.75;;;3.46;100.00
34586;BME280;20816;50.950;11.108;2023-01-30T13:29:11;97935.22;;;3.44;100.00
34586;BME280;20816;50.950;11.108;2023-01-30T13:31:49;97944.72;;;3.46;100.00
34586;BME280;20816;50.950;11.108;2023-01-30T13:34:28;97943.03;;;3.36;100.00
34586;BME280;20816;50.950;11.108;2023-01-30T13:37:17;97956.91;;;3.35;100.00
34586;BME280;20816;50.950;11.108;2023-01-30T13:39:51;97962.06;;;3.38;100.00
34586;BME280;20816;50.950;11.108;2023-01-30T13:42:29;97954.25;;;3.41;100.00
34586;BME280;20816;50.950;11.108;2023-01-30T13:44:59;97950.81;;;3.39;100.00
34586;BME280;20816;50.950;11.108;2023-01-30T13:53:00;97950.84;;;3.25;100.00
34586;BME280;20816;50.950;11.108;2023-01-30T13:56:12;97952.59;;;3.28;100.00
34586;BME280;20816;50.950;11.108;2023-01-30T14:07:14;97985.47;;;3.24;100.00
34586;BME280;20816;50.950;11.108;2023-01-30T14:10:00;97967.28;;;3.32;100.00
34586;BME280;20816;50.950;11.108;2023-01-30T14:12:35;97974.19;;;3.33;100.00
34586;BME280;20816;50.950;11.108;2023-01-30T14:15:21;97984.63;;;3.21;100.00
34586;BME280;20816;50.950;11.108;2023-01-30T14:18:04;97979.41;;;3.24;100.00
34586;BME280;20816;50.950;11.108;2023-01-30T14:20:35;97981.13;;;3.31;100.00
34586;BME280;20816;50.950;11.108;2023-01-30T14:23:21;97979.44;;;3.21;100.00
34586;BME280;20816;50.950;11.108;2023-01-30T14:25:51;97976.03;;;3.09;100.00
34586;BME280;20816;50.950;11.108;2023-01-30T14:30:55;97974.22;;;3.24;100.00
34586;BME280;20816;50.950;11.108;2023-01-30T14:45:51;98008.84;;;3.32;100.00
34586;BME280;20816;50.950;11.108;2023-01-30T14:53:56;98010.53;;;3.51;100.00
34586;BME280;20816;50.950;11.108;2023-01-30T15:01:59;98034.69;;;3.72;100.00
34586;BME280;20816;50.950;11.108;2023-01-30T15:04:32;98050.25;;;3.78;100.00
34586;BME280;20816;50.950;11.108;2023-01-30T15:07:09;98045.09;;;3.72;100.00
34586;BME280;20816;50.950;11.108;2023-01-30T15:09:41;98052.88;;;3.76;100.00
34586;BME280;20816;50.950;11.108;2023-01-30T15:12:44;98067.59;;;3.76;100.00
34586;BME280;20816;50.950;11.108;2023-01-30T15:15:33;98080.56;;;3.85;100.00
34586;BME280;20816;50.950;11.108;2023-01-30T15:18:14;98084.06;;;3.70;100.00
34586;BME280;20816;50.950;11.108;2023-01-30T15:27:00;98107.47;;;3.69;100.00
34586;BME280;20816;50.950;11.108;2023-01-30T15:29:57;98112.69;;;3.59;100.00
34586;BME280;20816;50.950;11.108;2023-01-30T15:32:29;98110.94;;;3.68;100.00